Impacts METAR Board
IDs:

KSTL - St Louis/Lambert Int, MO, US

Updated at: 1900 UTC 26 Oct 2021
Potential Impact None Slight Moderate High
Time 26/07Z 26/08Z 26/09Z 26/10Z 26/11Z 26/12Z 26/13Z 26/14Z 26/15Z 26/16Z 26/17Z 26/18Z 26/19Z
Temp43 45 44 44 43 42 43 47 50 54 57 59 61
Dewpt39 40 39 40 38 38 39 43 43 43 43 42 42
Altim30.11 30.10 30.09 30.10 30.11 30.13 30.12 30.13 30.13 30.13 30.10 30.07 30.04
VIS10 10 10 10 10 10 10 10 10 10 10 10 10
CIG-- -- -- -- -- -- -- -- -- -- -- -- --
CoverCLRCLRFEWCLRCLRCLRCLRCLRCLRCLRFEWFEWFEW
FltCatVFRVFRVFRVFRVFRVFRVFRVFRVFRVFRVFRVFRVFR
WX--------------------------
WDir3000030029008012013011011090
WSpd4 0 0 4 0 3 0 3 6 6 6 7 9
WGst-- -- -- -- -- -- -- -- -- -- -- -- --
Raw hourly METARs
KSTL 260651Z 30004KT 10SM CLR 06/04 A3011 RMK AO2 SLP199 T00610039
KSTL 260751Z 00000KT 10SM CLR 07/04 A3010 RMK AO2 SLP195 T00720044
KSTL 260851Z 00000KT 10SM FEW250 07/04 A3009 RMK AO2 SLP192 T00670039 58004
KSTL 260951Z 03004KT 10SM CLR 07/04 A3010 RMK AO2 SLP195 T00670044
KSTL 261051Z 00000KT 10SM CLR 06/03 A3011 RMK AO2 SLP200 T00610033
KSTL 261151Z 29003KT 10SM CLR 06/03 A3013 RMK AO2 SLP204 T00560033 10072 20056 51010
KSTL 261251Z 00000KT 10SM CLR 06/04 A3012 RMK AO2 SLP202 T00610039
KSTL 261351Z 08003KT 10SM CLR 08/06 A3013 RMK AO2 SLP204 T00830061
KSTL 261451Z 12006KT 10SM CLR 10/06 A3013 RMK AO2 SLP205 T01000061 53003
KSTL 261551Z 13006KT 10SM CLR 12/06 A3013 RMK AO2 SLP203 T01220061
KSTL 261651Z 11006KT 10SM FEW030 14/06 A3010 RMK AO2 SLP195 T01390061
KSTL 261751Z 11007KT 10SM FEW035 15/06 A3007 RMK AO2 SLP185 T01500056 10150 20044 58019
KSTL 261851Z 09009KT 10SM FEW035 16/06 A3004 RMK AO2 SLP175 T01610056



Page loaded:  19:08 UTC  |   12:08 PM Pacific  |   01:08 PM Mountain  |   02:08 PM Central  |   03:08 PM Eastern

 

ADVISORIES

FORECASTS

FORECASTS

OBSERVATIONS

USER TOOLS

ABOUT US